Mc Allen Miller International Airport
KMFE : rendu visible

Aérodrome :











RETROUVEZ-NOUS SUR...

 
LOGIN :

S'inscrire | Disclaimer

   EN    FR    IT 

 









Légende :    VFR   VFR Marginal   IFR   IFR Intensif   IFR Très Intensif
Visi : 
Plafond : 
>= 8 km
>= 3000ft
5 à 8 km
1000 à 3000 ft
1500m à 5 km
500 à 1000 ft
800 à 1500m
200 à 500 ft
< 800m
< 200 ft
Symboles :   Orages  Brouillard  Fortes neiges  Fortes précipitations  Vent > 20 kt






- Altitude de l'aérodrome : 107 ft
- Code IATA : MFE


KMFE - Mc Allen Miller International

DERNIER METAR :
  • 081153Z 00000KT 7SM OVC019 24/23 A2989 RMK AO2 SLP120 T02440228 10250 20239 51013

METARs EXPIRÉS :
  • 081053Z VRB03KT 7SM OVC010 25/23 A2987 RMK AO2 CIG 007V012 SLP114 T02500228
  • 081039Z AUTO 16004KT 7SM BKN008 OVC016 25/23 A2987 RMK AO2 CIG 006V012 T02500228
  • 081027Z AUTO 16003KT 7SM SCT007 OVC016 25/23 A2987 RMK AO2 T02500228
  • 080953Z AUTO 15005KT 7SM OVC008 25/23 A2985 RMK AO2 CIG 006V013 SLP108 T02500228

TAF KMFE
Valide du 08 à 12h jusqu'au 09 à 12h UTC


081120Z 0812/0912 VRB03KT 6SM BR OVC009
FM081400 VRB04KT P6SM OVC010
FM081700 16006KT P6SM BKN070
FM082200 13007KT P6SM SCT250



MET'MAP, la Météo Aéronautique d'un coup d'oeil ! - Copyright ORBIFLY Décembre 2007 - Disclaimer

ORBIFLY MET'MAP TEAM :

Programmation & Développement : Alexandra Zaïnal
Sur une idée originale de : Baudouin d'Aumeries
Assistance à la programmation : Marc-Olivier Méhu
Soutien technique & logistique : Manuel Goepfert

Contact : metmap@orbifly.com




SOURCES & CREDITS :

   NOAA       Earth
Advisory